sensor_id;sensor_type;location;lat;lon;timestamp;P1;durP1;ratioP1;P2;durP2;ratioP2
56667;SDS011;42542;48.360;10.958;2023-04-03T00:02:53;10.70;;;4.13;;
56667;SDS011;42542;48.360;10.958;2023-04-03T00:05:56;10.38;;;4.05;;
56667;SDS011;42542;48.360;10.958;2023-04-03T00:09:09;9.25;;;3.95;;
56667;SDS011;42542;48.360;10.958;2023-04-03T00:12:14;9.35;;;3.88;;
56667;SDS011;42542;48.360;10.958;2023-04-03T00:15:20;9.98;;;4.03;;
56667;SDS011;42542;48.360;10.958;2023-04-03T00:18:35;9.73;;;4.15;;
56667;SDS011;42542;48.360;10.958;2023-04-03T00:21:43;11.27;;;4.17;;
56667;SDS011;42542;48.360;10.958;2023-04-03T00:24:45;9.05;;;3.95;;
56667;SDS011;42542;48.360;10.958;2023-04-03T00:27:47;9.02;;;3.70;;
56667;SDS011;42542;48.360;10.958;2023-04-03T00:30:49;9.57;;;3.57;;
56667;SDS011;42542;48.360;10.958;2023-04-03T00:33:55;9.10;;;3.78;;
56667;SDS011;42542;48.360;10.958;2023-04-03T00:37:00;8.70;;;4.03;;
56667;SDS011;42542;48.360;10.958;2023-04-03T00:40:04;9.50;;;3.38;;
56667;SDS011;42542;48.360;10.958;2023-04-03T00:43:23;9.82;;;3.45;;
56667;SDS011;42542;48.360;10.958;2023-04-03T00:46:28;7.95;;;3.25;;
56667;SDS011;42542;48.360;10.958;2023-04-03T00:49:34;7.70;;;3.17;;
56667;SDS011;42542;48.360;10.958;2023-04-03T00:52:41;10.23;;;3.30;;
56667;SDS011;42542;48.360;10.958;2023-04-03T00:55:51;8.95;;;3.40;;
56667;SDS011;42542;48.360;10.958;2023-04-03T00:59:13;7.32;;;3.03;;
56667;SDS011;42542;48.360;10.958;2023-04-03T01:02:20;8.23;;;3.30;;
56667;SDS011;42542;48.360;10.958;2023-04-03T01:05:28;8.38;;;3.00;;
56667;SDS011;42542;48.360;10.958;2023-04-03T01:08:42;6.80;;;2.90;;
56667;SDS011;42542;48.360;10.958;2023-04-03T01:11:50;8.85;;;3.20;;
56667;SDS011;42542;48.360;10.958;2023-04-03T01:14:55;8.15;;;3.20;;
56667;SDS011;42542;48.360;10.958;2023-04-03T01:18:08;8.32;;;3.28;;
56667;SDS011;42542;48.360;10.958;2023-04-03T01:25:10;8.30;;;3.20;;
56667;SDS011;42542;48.360;10.958;2023-04-03T01:28:16;8.43;;;3.05;;
56667;SDS011;42542;48.360;10.958;2023-04-03T01:34:35;7.77;;;2.83;;
56667;SDS011;42542;48.360;10.958;2023-04-03T01:37:38;7.65;;;2.67;;
56667;SDS011;42542;48.360;10.958;2023-04-03T01:40:40;6.70;;;2.80;;
56667;SDS011;42542;48.360;10.958;2023-04-03T01:43:58;8.45;;;2.90;;
56667;SDS011;42542;48.360;10.958;2023-04-03T01:47:04;8.50;;;3.00;;
56667;SDS011;42542;48.360;10.958;2023-04-03T01:50:15;7.85;;;3.00;;
56667;SDS011;42542;48.360;10.958;2023-04-03T01:53:16;6.75;;;2.72;;
56667;SDS011;42542;48.360;10.958;2023-04-03T01:56:25;7.33;;;3.20;;
56667;SDS011;42542;48.360;10.958;2023-04-03T01:59:30;7.38;;;3.10;;
56667;SDS011;42542;48.360;10.958;2023-04-03T02:02:33;7.00;;;2.70;;
56667;SDS011;42542;48.360;10.958;2023-04-03T02:05:35;7.47;;;2.63;;
56667;SDS011;42542;48.360;10.958;2023-04-03T02:08:42;7.10;;;2.70;;
56667;SDS011;42542;48.360;10.958;2023-04-03T02:11:45;7.57;;;2.70;;
56667;SDS011;42542;48.360;10.958;2023-04-03T02:14:50;6.80;;;2.53;;
56667;SDS011;42542;48.360;10.958;2023-04-03T02:17:55;7.82;;;2.88;;
56667;SDS011;42542;48.360;10.958;2023-04-03T02:21:01;7.10;;;2.80;;
56667;SDS011;42542;48.360;10.958;2023-04-03T02:24:05;8.02;;;3.00;;
56667;SDS011;42542;48.360;10.958;2023-04-03T02:27:16;7.23;;;2.70;;
56667;SDS011;42542;48.360;10.958;2023-04-03T02:30:18;7.43;;;2.63;;
56667;SDS011;42542;48.360;10.958;2023-04-03T02:33:25;7.78;;;3.03;;
56667;SDS011;42542;48.360;10.958;2023-04-03T02:36:28;7.20;;;2.67;;
56667;SDS011;42542;48.360;10.958;2023-04-03T02:39:44;8.77;;;3.00;;
56667;SDS011;42542;48.360;10.958;2023-04-03T02:42:51;7.90;;;2.90;;
56667;SDS011;42542;48.360;10.958;2023-04-03T02:45:58;7.00;;;2.80;;
56667;SDS011;42542;48.360;10.958;2023-04-03T02:49:06;7.47;;;2.53;;
56667;SDS011;42542;48.360;10.958;2023-04-03T02:52:09;6.90;;;2.58;;
56667;SDS011;42542;48.360;10.958;2023-04-03T02:55:14;7.95;;;3.05;;
56667;SDS011;42542;48.360;10.958;2023-04-03T02:58:24;8.93;;;3.10;;
56667;SDS011;42542;48.360;10.958;2023-04-03T03:01:32;7.28;;;2.80;;
56667;SDS011;42542;48.360;10.958;2023-04-03T03:04:36;8.00;;;2.90;;
56667;SDS011;42542;48.360;10.958;2023-04-03T03:07:42;8.70;;;3.10;;
56667;SDS011;42542;48.360;10.958;2023-04-03T03:10:47;9.48;;;3.17;;
56667;SDS011;42542;48.360;10.958;2023-04-03T03:13:52;7.13;;;2.90;;
56667;SDS011;42542;48.360;10.958;2023-04-03T03:17:08;7.80;;;3.13;;
56667;SDS011;42542;48.360;10.958;2023-04-03T03:20:14;7.03;;;2.63;;
56667;SDS011;42542;48.360;10.958;2023-04-03T03:23:29;9.80;;;3.10;;
56667;SDS011;42542;48.360;10.958;2023-04-03T03:26:42;7.88;;;2.92;;
56667;SDS011;42542;48.360;10.958;2023-04-03T03:29:47;7.70;;;2.80;;
56667;SDS011;42542;48.360;10.958;2023-04-03T03:32:53;7.43;;;3.08;;
56667;SDS011;42542;48.360;10.958;2023-04-03T03:36:05;7.78;;;2.75;;
56667;SDS011;42542;48.360;10.958;2023-04-03T03:39:13;8.47;;;3.20;;
56667;SDS011;42542;48.360;10.958;2023-04-03T03:42:20;8.52;;;2.83;;
56667;SDS011;42542;48.360;10.958;2023-04-03T03:45:25;7.43;;;3.00;;
56667;SDS011;42542;48.360;10.958;2023-04-03T03:48:30;8.25;;;3.00;;
56667;SDS011;42542;48.360;10.958;2023-04-03T03:51:37;8.02;;;3.10;;
56667;SDS011;42542;48.360;10.958;2023-04-03T03:54:56;7.90;;;3.20;;
56667;SDS011;42542;48.360;10.958;2023-04-03T03:58:11;9.68;;;3.67;;
56667;SDS011;42542;48.360;10.958;2023-04-03T04:01:18;8.47;;;3.20;;
56667;SDS011;42542;48.360;10.958;2023-04-03T04:04:22;8.30;;;3.13;;
56667;SDS011;42542;48.360;10.958;2023-04-03T04:07:28;8.57;;;3.20;;
56667;SDS011;42542;48.360;10.958;2023-04-03T04:10:36;7.90;;;3.20;;
56667;SDS011;42542;48.360;10.958;2023-04-03T04:13:54;9.15;;;3.38;;
56667;SDS011;42542;48.360;10.958;2023-04-03T04:17:03;8.85;;;3.50;;
56667;SDS011;42542;48.360;10.958;2023-04-03T04:20:06;7.57;;;3.20;;
56667;SDS011;42542;48.360;10.958;2023-04-03T04:23:12;8.45;;;3.60;;
56667;SDS011;42542;48.360;10.958;2023-04-03T04:26:17;8.13;;;3.25;;
56667;SDS011;42542;48.360;10.958;2023-04-03T04:29:20;7.93;;;3.22;;
56667;SDS011;42542;48.360;10.958;2023-04-03T04:32:35;8.97;;;3.00;;
56667;SDS011;42542;48.360;10.958;2023-04-03T04:35:41;9.20;;;3.65;;
56667;SDS011;42542;48.360;10.958;2023-04-03T04:38:49;8.23;;;3.25;;
56667;SDS011;42542;48.360;10.958;2023-04-03T04:41:57;8.60;;;3.50;;
56667;SDS011;42542;48.360;10.958;2023-04-03T04:45:06;8.70;;;3.53;;
56667;SDS011;42542;48.360;10.958;2023-04-03T04:48:14;8.82;;;3.58;;
56667;SDS011;42542;48.360;10.958;2023-04-03T04:51:18;8.90;;;3.50;;
56667;SDS011;42542;48.360;10.958;2023-04-03T04:54:20;10.10;;;3.50;;
56667;SDS011;42542;48.360;10.958;2023-04-03T04:57:24;9.25;;;3.40;;
56667;SDS011;42542;48.360;10.958;2023-04-03T05:00:36;7.43;;;3.30;;
56667;SDS011;42542;48.360;10.958;2023-04-03T05:03:40;8.43;;;3.63;;
56667;SDS011;42542;48.360;10.958;2023-04-03T05:06:44;11.00;;;3.50;;
56667;SDS011;42542;48.360;10.958;2023-04-03T05:09:55;9.82;;;3.83;;
56667;SDS011;42542;48.360;10.958;2023-04-03T05:13:00;7.93;;;3.23;;
56667;SDS011;42542;48.360;10.958;2023-04-03T05:16:02;9.32;;;3.92;;
56667;SDS011;42542;48.360;10.958;2023-04-03T05:19:04;9.93;;;3.58;;
56667;SDS011;42542;48.360;10.958;2023-04-03T05:22:16;9.18;;;3.50;;
56667;SDS011;42542;48.360;10.958;2023-04-03T05:25:37;8.05;;;3.30;;
56667;SDS011;42542;48.360;10.958;2023-04-03T05:28:44;8.70;;;3.40;;
56667;SDS011;42542;48.360;10.958;2023-04-03T05:31:52;8.27;;;3.45;;
56667;SDS011;42542;48.360;10.958;2023-04-03T05:35:25;8.37;;;3.40;;
56667;SDS011;42542;48.360;10.958;2023-04-03T05:38:33;7.30;;;3.30;;
56667;SDS011;42542;48.360;10.958;2023-04-03T05:41:37;8.60;;;3.42;;
56667;SDS011;42542;48.360;10.958;2023-04-03T05:44:42;10.80;;;4.00;;
56667;SDS011;42542;48.360;10.958;2023-04-03T05:47:45;10.35;;;3.70;;
56667;SDS011;42542;48.360;10.958;2023-04-03T05:50:59;9.25;;;3.90;;
56667;SDS011;42542;48.360;10.958;2023-04-03T05:54:10;10.48;;;3.58;;
56667;SDS011;42542;48.360;10.958;2023-04-03T05:57:53;8.38;;;3.60;;
56667;SDS011;42542;48.360;10.958;2023-04-03T06:00:59;10.18;;;3.90;;
56667;SDS011;42542;48.360;10.958;2023-04-03T06:04:05;10.07;;;3.58;;
56667;SDS011;42542;48.360;10.958;2023-04-03T06:07:14;9.00;;;3.57;;
56667;SDS011;42542;48.360;10.958;2023-04-03T06:10:19;9.32;;;3.75;;
56667;SDS011;42542;48.360;10.958;2023-04-03T06:13:24;9.65;;;4.00;;
56667;SDS011;42542;48.360;10.958;2023-04-03T06:16:29;9.83;;;3.70;;
56667;SDS011;42542;48.360;10.958;2023-04-03T06:19:34;9.48;;;4.20;;
56667;SDS011;42542;48.360;10.958;2023-04-03T06:22:57;9.68;;;4.00;;
56667;SDS011;42542;48.360;10.958;2023-04-03T06:26:00;11.65;;;3.90;;
56667;SDS011;42542;48.360;10.958;2023-04-03T06:29:10;11.57;;;4.15;;
56667;SDS011;42542;48.360;10.958;2023-04-03T06:32:15;11.73;;;4.38;;
56667;SDS011;42542;48.360;10.958;2023-04-03T06:35:19;9.48;;;4.25;;
56667;SDS011;42542;48.360;10.958;2023-04-03T06:38:33;10.50;;;4.10;;
56667;SDS011;42542;48.360;10.958;2023-04-03T06:41:38;9.68;;;4.18;;
56667;SDS011;42542;48.360;10.958;2023-04-03T06:45:04;11.10;;;4.20;;
56667;SDS011;42542;48.360;10.958;2023-04-03T06:48:11;10.37;;;3.93;;
56667;SDS011;42542;48.360;10.958;2023-04-03T06:51:18;9.52;;;4.22;;
56667;SDS011;42542;48.360;10.958;2023-04-03T06:54:25;10.75;;;4.22;;
56667;SDS011;42542;48.360;10.958;2023-04-03T06:57:28;9.15;;;3.63;;
56667;SDS011;42542;48.360;10.958;2023-04-03T07:00:34;9.98;;;4.25;;
56667;SDS011;42542;48.360;10.958;2023-04-03T07:03:40;10.85;;;3.88;;
56667;SDS011;42542;48.360;10.958;2023-04-03T07:06:51;9.15;;;4.10;;
56667;SDS011;42542;48.360;10.958;2023-04-03T07:09:58;10.47;;;4.17;;
56667;SDS011;42542;48.360;10.958;2023-04-03T07:13:01;10.13;;;4.15;;
56667;SDS011;42542;48.360;10.958;2023-04-03T07:16:04;11.23;;;3.90;;
56667;SDS011;42542;48.360;10.958;2023-04-03T07:19:16;10.07;;;3.73;;
56667;SDS011;42542;48.360;10.958;2023-04-03T07:22:29;8.23;;;3.60;;
56667;SDS011;42542;48.360;10.958;2023-04-03T07:25:43;10.57;;;3.70;;
56667;SDS011;42542;48.360;10.958;2023-04-03T07:29:09;10.95;;;3.80;;
56667;SDS011;42542;48.360;10.958;2023-04-03T07:32:15;9.23;;;3.58;;
56667;SDS011;42542;48.360;10.958;2023-04-03T07:35:26;10.45;;;3.90;;
56667;SDS011;42542;48.360;10.958;2023-04-03T07:38:30;10.35;;;3.60;;
56667;SDS011;42542;48.360;10.958;2023-04-03T07:41:36;10.23;;;4.30;;
56667;SDS011;42542;48.360;10.958;2023-04-03T07:44:50;11.23;;;4.00;;
56667;SDS011;42542;48.360;10.958;2023-04-03T07:47:56;9.38;;;4.13;;
56667;SDS011;42542;48.360;10.958;2023-04-03T07:51:01;9.47;;;3.80;;
56667;SDS011;42542;48.360;10.958;2023-04-03T07:54:13;10.40;;;3.40;;
56667;SDS011;42542;48.360;10.958;2023-04-03T07:57:19;9.40;;;3.67;;
56667;SDS011;42542;48.360;10.958;2023-04-03T08:00:26;11.27;;;4.05;;
56667;SDS011;42542;48.360;10.958;2023-04-03T08:03:32;8.32;;;3.40;;
56667;SDS011;42542;48.360;10.958;2023-04-03T08:06:44;8.93;;;4.03;;
56667;SDS011;42542;48.360;10.958;2023-04-03T08:09:49;10.63;;;3.80;;
56667;SDS011;42542;48.360;10.958;2023-04-03T08:13:04;10.20;;;3.80;;
56667;SDS011;42542;48.360;10.958;2023-04-03T08:16:16;10.00;;;3.83;;
56667;SDS011;42542;48.360;10.958;2023-04-03T08:19:27;9.85;;;4.00;;
56667;SDS011;42542;48.360;10.958;2023-04-03T08:22:37;10.13;;;3.57;;
56667;SDS011;42542;48.360;10.958;2023-04-03T08:25:43;10.45;;;3.55;;
56667;SDS011;42542;48.360;10.958;2023-04-03T08:28:45;9.45;;;3.83;;
56667;SDS011;42542;48.360;10.958;2023-04-03T08:31:51;10.32;;;3.83;;
56667;SDS011;42542;48.360;10.958;2023-04-03T08:34:57;9.93;;;3.95;;
56667;SDS011;42542;48.360;10.958;2023-04-03T08:38:03;9.02;;;3.95;;
56667;SDS011;42542;48.360;10.958;2023-04-03T08:44:59;9.27;;;3.73;;
56667;SDS011;42542;48.360;10.958;2023-04-03T08:48:21;9.38;;;3.88;;
56667;SDS011;42542;48.360;10.958;2023-04-03T08:51:39;10.48;;;4.00;;
56667;SDS011;42542;48.360;10.958;2023-04-03T08:55:03;9.17;;;3.63;;
56667;SDS011;42542;48.360;10.958;2023-04-03T08:58:29;8.27;;;3.60;;
56667;SDS011;42542;48.360;10.958;2023-04-03T09:01:38;10.23;;;4.00;;
56667;SDS011;42542;48.360;10.958;2023-04-03T09:04:47;8.38;;;3.60;;
56667;SDS011;42542;48.360;10.958;2023-04-03T09:08:03;8.80;;;3.88;;
56667;SDS011;42542;48.360;10.958;2023-04-03T09:15:19;9.05;;;4.05;;
56667;SDS011;42542;48.360;10.958;2023-04-03T09:18:41;8.80;;;3.80;;
56667;SDS011;42542;48.360;10.958;2023-04-03T09:21:56;9.00;;;3.80;;
56667;SDS011;42542;48.360;10.958;2023-04-03T09:25:21;8.60;;;3.65;;
56667;SDS011;42542;48.360;10.958;2023-04-03T09:28:41;8.50;;;3.50;;
56667;SDS011;42542;48.360;10.958;2023-04-03T09:31:56;9.90;;;3.90;;
56667;SDS011;42542;48.360;10.958;2023-04-03T09:35:04;8.43;;;3.38;;
56667;SDS011;42542;48.360;10.958;2023-04-03T09:39:02;10.32;;;3.90;;
56667;SDS011;42542;48.360;10.958;2023-04-03T09:42:18;8.05;;;3.60;;
56667;SDS011;42542;48.360;10.958;2023-04-03T09:45:32;9.75;;;4.03;;
56667;SDS011;42542;48.360;10.958;2023-04-03T09:48:49;8.80;;;3.90;;
56667;SDS011;42542;48.360;10.958;2023-04-03T09:52:24;10.27;;;3.80;;
56667;SDS011;42542;48.360;10.958;2023-04-03T09:55:41;9.25;;;3.75;;
56667;SDS011;42542;48.360;10.958;2023-04-03T09:58:46;8.68;;;3.53;;
56667;SDS011;42542;48.360;10.958;2023-04-03T10:01:58;10.87;;;4.20;;
56667;SDS011;42542;48.360;10.958;2023-04-03T10:05:28;9.20;;;4.00;;
56667;SDS011;42542;48.360;10.958;2023-04-03T10:08:41;8.57;;;3.72;;
56667;SDS011;42542;48.360;10.958;2023-04-03T10:15:14;10.55;;;3.95;;
56667;SDS011;42542;48.360;10.958;2023-04-03T10:18:31;8.35;;;3.58;;
56667;SDS011;42542;48.360;10.958;2023-04-03T10:22:11;9.05;;;3.40;;
56667;SDS011;42542;48.360;10.958;2023-04-03T10:32:30;9.18;;;3.67;;
56667;SDS011;42542;48.360;10.958;2023-04-03T10:36:16;8.83;;;3.80;;
56667;SDS011;42542;48.360;10.958;2023-04-03T10:43:19;8.90;;;3.70;;
56667;SDS011;42542;48.360;10.958;2023-04-03T10:46:50;12.48;;;4.05;;
56667;SDS011;42542;48.360;10.958;2023-04-03T10:54:11;10.18;;;3.78;;
56667;SDS011;42542;48.360;10.958;2023-04-03T10:57:15;9.93;;;4.07;;
56667;SDS011;42542;48.360;10.958;2023-04-03T11:00:23;9.87;;;4.07;;
56667;SDS011;42542;48.360;10.958;2023-04-03T11:03:42;10.70;;;4.28;;
56667;SDS011;42542;48.360;10.958;2023-04-03T11:07:10;9.82;;;3.78;;
56667;SDS011;42542;48.360;10.958;2023-04-03T11:10:37;9.73;;;3.77;;
56667;SDS011;42542;48.360;10.958;2023-04-03T11:13:56;8.80;;;3.63;;
56667;SDS011;42542;48.360;10.958;2023-04-03T11:17:33;10.60;;;4.28;;
56667;SDS011;42542;48.360;10.958;2023-04-03T11:20:47;9.20;;;3.88;;
56667;SDS011;42542;48.360;10.958;2023-04-03T11:24:25;12.50;;;4.88;;
56667;SDS011;42542;48.360;10.958;2023-04-03T11:27:45;10.00;;;4.55;;
56667;SDS011;42542;48.360;10.958;2023-04-03T11:34:26;9.93;;;3.90;;
56667;SDS011;42542;48.360;10.958;2023-04-03T11:37:50;11.15;;;4.63;;
56667;SDS011;42542;48.360;10.958;2023-04-03T11:40:55;11.13;;;5.03;;
56667;SDS011;42542;48.360;10.958;2023-04-03T11:44:27;10.17;;;3.30;;
56667;SDS011;42542;48.360;10.958;2023-04-03T11:47:47;8.10;;;3.33;;
56667;SDS011;42542;48.360;10.958;2023-04-03T11:54:58;8.30;;;3.45;;
56667;SDS011;42542;48.360;10.958;2023-04-03T12:05:23;9.30;;;3.42;;
56667;SDS011;42542;48.360;10.958;2023-04-03T12:08:50;8.87;;;3.10;;
56667;SDS011;42542;48.360;10.958;2023-04-03T12:11:59;8.52;;;3.08;;
56667;SDS011;42542;48.360;10.958;2023-04-03T12:15:19;8.10;;;3.10;;
56667;SDS011;42542;48.360;10.958;2023-04-03T12:22:50;8.45;;;3.00;;
56667;SDS011;42542;48.360;10.958;2023-04-03T12:26:45;7.57;;;3.00;;
56667;SDS011;42542;48.360;10.958;2023-04-03T12:45:00;13.03;;;5.33;;
56667;SDS011;42542;48.360;10.958;2023-04-03T12:48:22;10.00;;;4.20;;
56667;SDS011;42542;48.360;10.958;2023-04-03T12:51:40;6.90;;;2.83;;
56667;SDS011;42542;48.360;10.958;2023-04-03T12:54:45;8.50;;;2.70;;
56667;SDS011;42542;48.360;10.958;2023-04-03T12:57:49;6.78;;;2.80;;
56667;SDS011;42542;48.360;10.958;2023-04-03T13:04:16;6.90;;;2.60;;
56667;SDS011;42542;48.360;10.958;2023-04-03T13:07:37;7.13;;;2.75;;
56667;SDS011;42542;48.360;10.958;2023-04-03T13:10:54;8.43;;;2.80;;
56667;SDS011;42542;48.360;10.958;2023-04-03T13:14:00;7.38;;;2.85;;
56667;SDS011;42542;48.360;10.958;2023-04-03T13:17:14;7.17;;;2.10;;
56667;SDS011;42542;48.360;10.958;2023-04-03T13:20:29;6.28;;;2.20;;
56667;SDS011;42542;48.360;10.958;2023-04-03T13:23:56;6.28;;;2.22;;
56667;SDS011;42542;48.360;10.958;2023-04-03T13:27:17;6.43;;;2.00;;
56667;SDS011;42542;48.360;10.958;2023-04-03T13:30:29;6.20;;;2.20;;
56667;SDS011;42542;48.360;10.958;2023-04-03T13:37:24;6.68;;;2.10;;
56667;SDS011;42542;48.360;10.958;2023-04-03T13:40:33;7.43;;;2.53;;
56667;SDS011;42542;48.360;10.958;2023-04-03T13:43:48;6.43;;;2.28;;
56667;SDS011;42542;48.360;10.958;2023-04-03T13:47:19;7.13;;;2.55;;
56667;SDS011;42542;48.360;10.958;2023-04-03T13:54:22;5.70;;;2.00;;
56667;SDS011;42542;48.360;10.958;2023-04-03T14:04:25;5.47;;;1.63;;
56667;SDS011;42542;48.360;10.958;2023-04-03T14:07:33;5.32;;;1.90;;
56667;SDS011;42542;48.360;10.958;2023-04-03T14:10:39;8.63;;;2.05;;
56667;SDS011;42542;48.360;10.958;2023-04-03T14:13:46;5.78;;;1.70;;
56667;SDS011;42542;48.360;10.958;2023-04-03T14:16:57;7.22;;;2.00;;
56667;SDS011;42542;48.360;10.958;2023-04-03T14:20:27;6.05;;;2.08;;
56667;SDS011;42542;48.360;10.958;2023-04-03T14:23:32;7.73;;;1.93;;
56667;SDS011;42542;48.360;10.958;2023-04-03T14:26:36;6.05;;;1.90;;
56667;SDS011;42542;48.360;10.958;2023-04-03T14:29:38;5.15;;;1.63;;
56667;SDS011;42542;48.360;10.958;2023-04-03T14:32:43;6.83;;;2.27;;
56667;SDS011;42542;48.360;10.958;2023-04-03T14:35:46;5.72;;;1.67;;
56667;SDS011;42542;48.360;10.958;2023-04-03T14:38:49;5.95;;;1.63;;
56667;SDS011;42542;48.360;10.958;2023-04-03T14:42:00;8.07;;;2.38;;
56667;SDS011;42542;48.360;10.958;2023-04-03T14:45:07;7.95;;;1.98;;
56667;SDS011;42542;48.360;10.958;2023-04-03T14:48:23;6.45;;;1.67;;
56667;SDS011;42542;48.360;10.958;2023-04-03T14:51:29;6.10;;;1.60;;
56667;SDS011;42542;48.360;10.958;2023-04-03T14:54:33;21.97;;;8.70;;
56667;SDS011;42542;48.360;10.958;2023-04-03T14:57:38;19.05;;;7.68;;
56667;SDS011;42542;48.360;10.958;2023-04-03T15:00:51;28.73;;;12.05;;
56667;SDS011;42542;48.360;10.958;2023-04-03T15:03:56;23.97;;;10.13;;
56667;SDS011;42542;48.360;10.958;2023-04-03T15:07:02;20.23;;;5.97;;
56667;SDS011;42542;48.360;10.958;2023-04-03T15:10:24;6.70;;;2.10;;
56667;SDS011;42542;48.360;10.958;2023-04-03T15:13:28;5.55;;;2.20;;
56667;SDS011;42542;48.360;10.958;2023-04-03T15:16:33;8.85;;;2.55;;
56667;SDS011;42542;48.360;10.958;2023-04-03T15:19:38;34.97;;;10.73;;
56667;SDS011;42542;48.360;10.958;2023-04-03T15:22:41;26.25;;;9.23;;
56667;SDS011;42542;48.360;10.958;2023-04-03T15:26:07;8.40;;;2.90;;
56667;SDS011;42542;48.360;10.958;2023-04-03T15:29:10;9.57;;;2.42;;
56667;SDS011;42542;48.360;10.958;2023-04-03T15:32:12;6.63;;;2.67;;
56667;SDS011;42542;48.360;10.958;2023-04-03T15:35:14;16.40;;;5.17;;
56667;SDS011;42542;48.360;10.958;2023-04-03T15:38:19;12.63;;;3.90;;
56667;SDS011;42542;48.360;10.958;2023-04-03T15:41:25;8.88;;;2.60;;
56667;SDS011;42542;48.360;10.958;2023-04-03T15:44:28;5.50;;;1.50;;
56667;SDS011;42542;48.360;10.958;2023-04-03T15:47:31;6.78;;;1.80;;
56667;SDS011;42542;48.360;10.958;2023-04-03T15:50:35;9.43;;;3.60;;
56667;SDS011;42542;48.360;10.958;2023-04-03T15:53:39;4.78;;;1.33;;
56667;SDS011;42542;48.360;10.958;2023-04-03T15:56:58;20.00;;;7.17;;
56667;SDS011;42542;48.360;10.958;2023-04-03T16:00:10;7.85;;;2.60;;
56667;SDS011;42542;48.360;10.958;2023-04-03T16:03:20;6.93;;;2.42;;
56667;SDS011;42542;48.360;10.958;2023-04-03T16:06:33;10.57;;;3.60;;
56667;SDS011;42542;48.360;10.958;2023-04-03T16:09:35;8.80;;;2.88;;
56667;SDS011;42542;48.360;10.958;2023-04-03T16:12:39;17.63;;;7.07;;
56667;SDS011;42542;48.360;10.958;2023-04-03T16:15:44;6.53;;;2.00;;
56667;SDS011;42542;48.360;10.958;2023-04-03T16:18:49;5.95;;;1.90;;
56667;SDS011;42542;48.360;10.958;2023-04-03T16:21:55;6.60;;;2.50;;
56667;SDS011;42542;48.360;10.958;2023-04-03T16:25:01;6.47;;;1.80;;
56667;SDS011;42542;48.360;10.958;2023-04-03T16:28:13;6.03;;;1.50;;
56667;SDS011;42542;48.360;10.958;2023-04-03T16:31:24;5.30;;;1.70;;
56667;SDS011;42542;48.360;10.958;2023-04-03T16:34:30;5.40;;;1.65;;
56667;SDS011;42542;48.360;10.958;2023-04-03T16:37:43;5.27;;;1.40;;
56667;SDS011;42542;48.360;10.958;2023-04-03T16:40:47;6.45;;;1.70;;
56667;SDS011;42542;48.360;10.958;2023-04-03T16:43:50;6.93;;;1.67;;
56667;SDS011;42542;48.360;10.958;2023-04-03T16:47:11;5.53;;;1.70;;
56667;SDS011;42542;48.360;10.958;2023-04-03T16:50:24;6.40;;;2.50;;
56667;SDS011;42542;48.360;10.958;2023-04-03T16:53:29;6.97;;;2.70;;
56667;SDS011;42542;48.360;10.958;2023-04-03T16:56:34;8.52;;;2.53;;
56667;SDS011;42542;48.360;10.958;2023-04-03T16:59:41;6.73;;;2.30;;
56667;SDS011;42542;48.360;10.958;2023-04-03T17:02:44;11.43;;;5.10;;
56667;SDS011;42542;48.360;10.958;2023-04-03T17:05:49;8.65;;;3.70;;
56667;SDS011;42542;48.360;10.958;2023-04-03T17:09:06;9.63;;;3.93;;
56667;SDS011;42542;48.360;10.958;2023-04-03T17:12:11;8.50;;;2.60;;
56667;SDS011;42542;48.360;10.958;2023-04-03T17:15:16;6.60;;;2.33;;
56667;SDS011;42542;48.360;10.958;2023-04-03T17:18:20;6.25;;;2.25;;
56667;SDS011;42542;48.360;10.958;2023-04-03T17:21:32;5.85;;;1.70;;
56667;SDS011;42542;48.360;10.958;2023-04-03T17:24:35;7.45;;;2.10;;
56667;SDS011;42542;48.360;10.958;2023-04-03T17:27:40;7.18;;;2.95;;
56667;SDS011;42542;48.360;10.958;2023-04-03T17:30:44;5.83;;;1.83;;
56667;SDS011;42542;48.360;10.958;2023-04-03T17:33:49;7.35;;;2.10;;
56667;SDS011;42542;48.360;10.958;2023-04-03T17:36:53;4.70;;;1.40;;
56667;SDS011;42542;48.360;10.958;2023-04-03T17:39:58;7.43;;;2.00;;
56667;SDS011;42542;48.360;10.958;2023-04-03T17:43:03;6.47;;;1.90;;
56667;SDS011;42542;48.360;10.958;2023-04-03T17:46:09;5.40;;;1.73;;
56667;SDS011;42542;48.360;10.958;2023-04-03T17:49:13;5.30;;;1.70;;
56667;SDS011;42542;48.360;10.958;2023-04-03T17:52:23;5.68;;;1.75;;
56667;SDS011;42542;48.360;10.958;2023-04-03T17:55:28;10.23;;;3.08;;
56667;SDS011;42542;48.360;10.958;2023-04-03T17:58:33;6.35;;;2.13;;
56667;SDS011;42542;48.360;10.958;2023-04-03T18:01:45;6.13;;;2.00;;
56667;SDS011;42542;48.360;10.958;2023-04-03T18:04:54;6.10;;;2.10;;
56667;SDS011;42542;48.360;10.958;2023-04-03T18:07:58;7.50;;;2.58;;
56667;SDS011;42542;48.360;10.958;2023-04-03T18:11:08;6.47;;;2.20;;
56667;SDS011;42542;48.360;10.958;2023-04-03T18:14:14;8.00;;;2.55;;
56667;SDS011;42542;48.360;10.958;2023-04-03T18:17:26;8.90;;;2.47;;
56667;SDS011;42542;48.360;10.958;2023-04-03T18:20:43;6.57;;;1.90;;
56667;SDS011;42542;48.360;10.958;2023-04-03T18:23:48;6.13;;;2.33;;
56667;SDS011;42542;48.360;10.958;2023-04-03T18:26:57;7.72;;;2.80;;
56667;SDS011;42542;48.360;10.958;2023-04-03T18:30:06;6.90;;;2.40;;
56667;SDS011;42542;48.360;10.958;2023-04-03T18:33:16;6.87;;;2.33;;
56667;SDS011;42542;48.360;10.958;2023-04-03T18:36:20;5.70;;;1.90;;
56667;SDS011;42542;48.360;10.958;2023-04-03T18:39:26;6.90;;;2.10;;
56667;SDS011;42542;48.360;10.958;2023-04-03T18:42:32;6.27;;;1.83;;
56667;SDS011;42542;48.360;10.958;2023-04-03T18:45:36;5.88;;;2.10;;
56667;SDS011;42542;48.360;10.958;2023-04-03T18:48:38;6.53;;;2.10;;
56667;SDS011;42542;48.360;10.958;2023-04-03T18:51:51;6.82;;;2.08;;
56667;SDS011;42542;48.360;10.958;2023-04-03T18:54:56;8.10;;;2.25;;
56667;SDS011;42542;48.360;10.958;2023-04-03T18:57:58;6.25;;;2.10;;
56667;SDS011;42542;48.360;10.958;2023-04-03T19:01:16;6.95;;;2.10;;
56667;SDS011;42542;48.360;10.958;2023-04-03T19:04:28;8.07;;;2.70;;
56667;SDS011;42542;48.360;10.958;2023-04-03T19:07:40;6.38;;;2.38;;
56667;SDS011;42542;48.360;10.958;2023-04-03T19:10:48;10.45;;;2.95;;
56667;SDS011;42542;48.360;10.958;2023-04-03T19:13:53;7.17;;;2.53;;
56667;SDS011;42542;48.360;10.958;2023-04-03T19:17:14;6.70;;;2.28;;
56667;SDS011;42542;48.360;10.958;2023-04-03T19:20:18;6.95;;;2.65;;
56667;SDS011;42542;48.360;10.958;2023-04-03T19:23:23;6.68;;;2.22;;
56667;SDS011;42542;48.360;10.958;2023-04-03T19:26:29;6.47;;;2.00;;
56667;SDS011;42542;48.360;10.958;2023-04-03T19:29:40;5.97;;;2.05;;
56667;SDS011;42542;48.360;10.958;2023-04-03T19:32:45;7.03;;;2.20;;
56667;SDS011;42542;48.360;10.958;2023-04-03T19:35:46;7.33;;;2.20;;
56667;SDS011;42542;48.360;10.958;2023-04-03T19:38:52;6.32;;;2.30;;
56667;SDS011;42542;48.360;10.958;2023-04-03T19:41:58;6.75;;;2.22;;
56667;SDS011;42542;48.360;10.958;2023-04-03T19:45:12;6.60;;;2.30;;
56667;SDS011;42542;48.360;10.958;2023-04-03T19:48:24;7.57;;;2.47;;
56667;SDS011;42542;48.360;10.958;2023-04-03T19:51:28;7.70;;;2.53;;
56667;SDS011;42542;48.360;10.958;2023-04-03T19:54:32;6.55;;;2.20;;
56667;SDS011;42542;48.360;10.958;2023-04-03T19:57:39;6.88;;;2.42;;
56667;SDS011;42542;48.360;10.958;2023-04-03T20:00:46;6.72;;;2.40;;
56667;SDS011;42542;48.360;10.958;2023-04-03T20:03:57;7.55;;;1.90;;
56667;SDS011;42542;48.360;10.958;2023-04-03T20:07:02;5.77;;;1.83;;
56667;SDS011;42542;48.360;10.958;2023-04-03T20:10:08;6.85;;;1.92;;